Glentana, Montana
Current Conditions -  °F | °C
As of 11:53 AM on Saturday 25 Oct 2014 (Local Time) from KGGW Reporting Station
Clear Clear  
Wind Chill: 58°   Ceiling: Unl
Heat Index: 58°   Visibility: 10mi
Dew Point: 32°   Wind: 17mph
Humidity: 37%   Direction: 120°ESE
Pressure: 30"   Gusts: NA
Location:  48.85°N, 106.25°W
Report Text: KGGW 251753Z AUTO 12015KT 10SM CLR 14/00 A3000 RMK AO2 SLP167 T01440000 10144 20022 58019 $
Loading
Personal Weather Stations






























Interactive Weather Map
Tropical Storm Tracking
New forecast layout! Learn more

10-Day Weather Forecast

Advertisements
Track Severe Weather on mobile